SSEC Globe Logo

Space Science and Engineering Center

Regional Terminal Forecasts

KMSN 281743Z 2818/2918 VRB04KT 1SM -SN OVC025 FM282100
     04007KT 1/2SM SN SCT009 OVC015 FM290000 04010KT 1SM -SN
     OVC013 FM290600 01013KT 3SM -SHSN SCT013 OVC022
     FM291000 01012G21KT P6SM -SHSN OVC022 FM291600 35011KT
     P6SM BKN027=
TAF KMKE 281743Z 2818/2924 VRB03KT 1SM -SN BKN017 OVC025
     FM281900 03005KT 1SM -SN BKN015 OVC022 FM282200 03008KT
     1/2SM SN SCT008 OVC015 FM290300 03012KT 1SM -SN OVC008
     FM290600 02013KT 1SM -SHSN SCT008 OVC015 FM290900
     01014KT 3SM -SHSN OVC018 FM291100 35013G22KT P6SM -SHSN
     OVC018 FM291700 34012KT P6SM BKN022 FM292300 33009KT
     P6SM BKN035=
KGRB 281720Z 2818/2918 32004KT P6SM OVC080 FM282300 03008KT
     P6SM SCT025 OVC060 FM290300 02009G18KT P6SM -SN SCT025
     BKN060 FM290800 36010G18KT P6SM OVC060 FM291500
     34009G15KT P6SM BKN080=
TAF AMD KAUW 281938Z 2820/2918 32003KT P6SM BKN080 FM290000
     03004KT P6SM OVC070 FM290400 35004KT P6SM BKN080
     FM291500 32006KT P6SM BKN100=
KEAU 281737Z 2818/2918 35005KT P6SM OVC150 FM291700 32007KT
     P6SM BKN100=
KLSE 281720Z 2818/2918 33006KT P6SM OVC080 FM282100 35008KT
     6SM -SN OVC035 TEMPO 2821/2823 OVC025 FM290800 34007KT
     P6SM OVC050=
TAF KDBQ 281720Z 2818/2918 03009KT 1SM -SN OVC015 TEMPO
     2818/2821 1/2SM SN FG OVC008 FM290000 01012G22KT 3SM
     -SN BR OVC010 FM291000 35014G24KT 6SM -SN OVC015=
TAF KRFD 281725Z 2818/2918 07007KT 1SM -SN BR OVC012 TEMPO
     2819/2823 1/2SM SN FZFG VV007 FM290000 03012G19KT 3/4SM
     -SN BR OVC007 FM290600 01013G20KT 1 1/2SM -SN BR OVC008
     FM290900 35012G18KT P6SM -SHSN OVC015 FM291200
     35012G17KT P6SM OVC020=
KORD 282000Z 2820/2924 04011KT 1 1/2SM -SN BR SCT009 OVC015
     TEMPO 2820/2822 3/4SM -SN BR OVC009 FM282200 06011KT
     3SM -SN BR OVC015 FM290100 04013G20KT 1 1/2SM -SN BR
     OVC008 TEMPO 2902/2906 1/2SM SN FZFG VV005 FM291300
     35013G22KT P6SM OVC015=